Time;durP1;ratioP1;P1;durP2;ratioP2;P2;SDS_P1;SDS_P2;PMS_P1;PMS_P2;Temp;Humidity;BMP_temperature;BMP_pressure;BME280_temperature;BME280_humidity;BME280_pressure;Samples;Min_cycle;Max_cycle;Signal;HPM_P1;HPM_P2
2022/01/25 00:08:48;;;;;;;;;;;0.60;99.90;1.20;101092.00;;;;341451;28;91945;-88
2022/01/25 00:09:18;;;;;;;;;;;0.60;99.90;1.10;101093.00;;;;344627;28;83342;-88
2022/01/25 00:16:09;;;;;;;;;;;0.50;99.90;1.10;101092.00;;;;341788;28;91811;-88
2022/01/25 00:24:44;;;;;;;;;;;0.50;99.90;1.10;101094.00;;;;341819;28;91318;-88
2022/01/25 00:26:37;;;;;;;;;;;0.40;99.90;1.00;101104.00;;;;343383;28;83293;-88
2022/01/25 00:27:12;;;;;;;;;;;0.40;99.90;1.00;101089.00;;;;342493;28;91707;-88
2022/01/25 00:27:49;;;;;;;;;;;0.40;99.90;1.10;101089.00;;;;343873;28;92442;-88
2022/01/25 00:28:27;;;;;;;;;;;0.40;99.90;1.00;101094.00;;;;341450;28;83443;-88
2022/01/25 00:28:44;;;;;;;;;;;0.40;99.90;1.00;101104.00;;;;342910;28;91534;-88
2022/01/25 00:29:29;;;;;;;;;;;0.40;99.90;1.10;101093.00;;;;341163;28;92575;-88
2022/01/25 00:30:20;;;;;;;;;;;0.40;99.90;1.10;101092.00;;;;342868;28;92554;-88
2022/01/25 00:30:43;;;;;;;;;;;0.40;99.90;1.10;101096.00;;;;342995;28;83557;-88
2022/01/25 00:31:09;;;;;;;;;;;0.40;99.90;1.10;101093.00;;;;341499;28;91545;-88
2022/01/25 00:31:24;;;;;;;;;;;0.40;99.90;1.10;101109.00;;;;340756;28;83394;-88
2022/01/25 00:31:38;;;;;;;;;;;0.40;99.90;1.10;101099.00;;;;344050;28;92536;-88
2022/01/25 00:31:50;;;;;;;;;;;0.40;99.90;1.10;101105.00;;;;343335;28;83445;-88
2022/01/25 00:32:02;;;;;;;;;;;0.40;99.90;1.10;101099.00;;;;342814;28;91731;-88
2022/01/25 00:32:16;;;;;;;;;;;0.40;99.90;1.10;101094.00;;;;343376;28;83366;-88
2022/01/25 00:32:28;;;;;;;;;;;0.40;99.90;1.10;101101.00;;;;342852;28;92360;-88
2022/01/25 00:32:40;;;;;;;;;;;0.40;99.90;1.00;101101.00;;;;344479;28;83051;-87
2022/01/25 00:32:52;;;;;;;;;;;0.40;99.90;1.00;101095.00;;;;342928;28;90572;-88
2022/01/25 00:33:03;;;;;;;;;;;0.40;99.90;1.10;101093.00;;;;343199;28;83507;-88
2022/01/25 00:33:15;;;;;;;;;;;0.40;99.90;1.10;101101.00;;;;341668;28;89067;-88
2022/01/25 00:33:27;;;;;;;;;;;0.40;99.90;1.00;101103.00;;;;341432;28;83476;-88
2022/01/25 00:33:48;;;;;;;;;;;0.40;99.90;1.00;101096.00;;;;343784;28;89727;-88
2022/01/25 00:34:00;;;;;;;;;;;0.40;99.90;1.00;101104.00;;;;342622;28;83345;-88
2022/01/25 00:34:12;;;;;;;;;;;0.40;99.90;1.00;101096.00;;;;342899;28;91348;-88
2022/01/25 00:34:23;;;;;;;;;;;0.40;99.90;1.00;101106.00;;;;344686;28;83261;-87
2022/01/25 00:34:35;;;;;;;;;;;0.40;99.90;1.00;101109.00;;;;344000;28;90385;-87
2022/01/25 00:34:47;;;;;;;;;;;0.30;99.90;1.00;101107.00;;;;344634;28;83230;-88
2022/01/25 00:34:59;;;;;;;;;;;0.30;99.90;1.00;101101.00;;;;340151;28;91691;-88
2022/01/25 00:35:10;;;;;;;;;;;0.30;99.90;1.00;101101.00;;;;342040;28;83389;-88
2022/01/25 00:35:22;;;;;;;;;;;0.30;99.90;1.00;101107.00;;;;341271;28;91913;-88
2022/01/25 00:35:34;;;;;;;;;;;0.30;99.90;1.00;101103.00;;;;343172;28;83423;-88
2022/01/25 00:35:46;;;;;;;;;;;0.30;99.90;1.00;101104.00;;;;342856;28;91063;-87
2022/01/25 00:35:58;;;;;;;;;;;0.30;99.90;1.10;101107.00;;;;341992;28;83429;-88
2022/01/25 00:36:12;;;;;;;;;;;0.30;99.90;1.00;101105.00;;;;342859;28;91446;-88
2022/01/25 00:36:25;;;;;;;;;;;0.30;99.90;1.00;101101.00;;;;341872;28;83348;-88
2022/01/25 00:36:37;;;;;;;;;;;0.30;99.90;1.00;101096.00;;;;342873;28;87986;-88
2022/01/25 00:36:48;;;;;;;;;;;0.30;99.90;1.00;101103.00;;;;341985;28;83397;-88
2022/01/25 00:37:00;;;;;;;;;;;0.30;99.90;1.00;101102.00;;;;343677;28;90918;-88
2022/01/25 00:37:12;;;;;;;;;;;0.40;99.90;1.00;101105.00;;;;343414;28;83387;-88
2022/01/25 00:37:24;;;;;;;;;;;0.30;99.90;0.90;101116.00;;;;342884;28;90264;-88
2022/01/25 00:37:36;;;;;;;;;;;0.30;99.90;1.00;101114.00;;;;344540;28;83565;-88
2022/01/25 00:37:48;;;;;;;;;;;0.30;99.90;1.10;101105.00;;;;345660;28;92338;-88
2022/01/25 00:37:59;;;;;;;;;;;0.30;99.90;1.20;101103.00;;;;342101;28;82477;-88
2022/01/25 00:38:11;;;;;;;;;;;0.30;99.90;1.00;101107.00;;;;340164;28;91444;-88
2022/01/25 00:38:23;;;;;;;;;;;0.30;99.90;1.10;101101.00;;;;342042;28;82448;-88
2022/01/25 00:38:35;;;;;;;;;;;0.30;99.90;1.10;101102.00;;;;341665;28;89254;-88
2022/01/25 00:38:47;;;;;;;;;;;0.40;99.90;1.10;101096.00;;;;343289;28;83482;-88
2022/01/25 00:38:58;;;;;;;;;;;0.30;99.90;1.10;101107.00;;;;342718;28;89566;-88
2022/01/25 00:39:10;;;;;;;;;;;0.40;99.90;1.10;101091.00;;;;343313;28;82480;-88
2022/01/25 00:39:22;;;;;;;;;;;0.40;99.90;1.20;101093.00;;;;343990;28;91625;-87
2022/01/25 00:39:37;;;;;;;;;;;0.40;99.90;1.30;101100.00;;;;342759;28;83630;-88
2022/01/25 00:39:49;;;;;;;;;;;0.40;99.90;1.30;101108.00;;;;345627;28;92568;-87
2022/01/25 00:40:01;;;;;;;;;;;0.40;99.90;1.20;101090.00;;;;345612;28;82610;-88
2022/01/25 00:40:13;;;;;;;;;;;0.40;99.90;1.10;101099.00;;;;345450;28;90530;-88
2022/01/25 00:40:25;;;;;;;;;;;0.40;99.90;1.20;101099.00;;;;346007;28;83120;-88
2022/01/25 00:40:37;;;;;;;;;;;0.40;99.90;1.20;101095.00;;;;342896;28;91740;-88
2022/01/25 00:40:48;;;;;;;;;;;0.40;99.90;1.20;101104.00;;;;343288;28;82560;-88
2022/01/25 00:41:00;;;;;;;;;;;0.40;99.90;1.10;101100.00;;;;342949;28;91534;-88
2022/01/25 00:41:13;;;;;;;;;;;0.40;99.90;1.10;101101.00;;;;343350;28;83491;-88
2022/01/25 00:41:25;;;;;;;;;;;0.40;99.90;1.10;101099.00;;;;341525;28;89757;-88
2022/01/25 00:41:37;;;;;;;;;;;0.40;99.90;1.10;101102.00;;;;342101;28;84104;-88
2022/01/25 00:41:48;;;;;;;;;;;0.40;99.90;1.00;101108.00;;;;342785;28;92310;-88
2022/01/25 00:42:00;;;;;;;;;;;0.40;99.90;1.00;101096.00;;;;340455;28;83983;-88
2022/01/25 00:42:13;;;;;;;;;;;0.40;99.90;1.10;101099.00;;;;342891;28;90377;-88
2022/01/25 00:42:24;;;;;;;;;;;0.40;99.90;1.10;101107.00;;;;343186;28;82510;-88
2022/01/25 00:42:36;;;;;;;;;;;0.40;99.90;1.10;101113.00;;;;341262;28;92023;-88
2022/01/25 00:42:48;;;;;;;;;;;0.40;99.90;1.10;101103.00;;;;344538;28;83541;-88
2022/01/25 00:43:00;;;;;;;;;;;0.40;99.90;1.00;101103.00;;;;344249;28;90272;-88
2022/01/25 00:43:12;;;;;;;;;;;0.40;99.90;1.10;101090.00;;;;343288;28;83707;-88
2022/01/25 00:43:26;;;;;;;;;;;0.40;99.90;1.20;101094.00;;;;342841;28;91341;-86
2022/01/25 00:43:38;;;;;;;;;;;0.40;99.90;1.10;101096.00;;;;343428;28;82540;-88
2022/01/25 00:43:51;;;;;;;;;;;0.40;99.90;1.10;101090.00;;;;341641;28;89785;-88
2022/01/25 00:44:05;;;;;;;;;;;0.40;99.90;1.20;101096.00;;;;340508;28;83570;-88
2022/01/25 00:44:17;;;;;;;;;;;0.40;99.90;1.10;101094.00;;;;340229;28;91381;-88
2022/01/25 00:44:34;;;;;;;;;;;0.40;99.90;1.00;101101.00;;;;344524;28;82520;-88
2022/01/25 00:44:49;;;;;;;;;;;0.40;99.90;1.20;101105.00;;;;344067;28;89580;-88
2022/01/25 00:45:00;;;;;;;;;;;0.40;99.90;1.20;101107.00;;;;343331;28;83546;-88
2022/01/25 00:45:15;;;;;;;;;;;0.40;99.90;1.10;101096.00;;;;342899;28;91507;-88
2022/01/25 00:45:28;;;;;;;;;;;0.40;99.90;1.10;101105.00;;;;343063;28;83373;-88
2022/01/25 00:45:40;;;;;;;;;;;0.40;99.90;1.20;101099.00;;;;341354;28;94337;-88
2022/01/25 00:45:57;;;;;;;;;;;0.40;99.90;1.30;101109.00;;;;341998;28;83503;-88
2022/01/25 00:46:11;;;;;;;;;;;0.40;99.90;1.20;101100.00;;;;341455;28;89911;-88
2022/01/25 00:46:23;;;;;;;;;;;0.40;99.90;1.30;101099.00;;;;342027;28;83327;-87
2022/01/25 00:46:35;;;;;;;;;;;0.40;99.90;1.20;101101.00;;;;341415;28;91870;-88
2022/01/25 00:46:47;;;;;;;;;;;0.40;99.90;1.30;101106.00;;;;343273;28;83649;-88
2022/01/25 00:47:01;;;;;;;;;;;0.40;99.90;1.30;101091.00;;;;342927;28;90895;-88
2022/01/25 00:47:15;;;;;;;;;;;0.40;99.90;1.20;101091.00;;;;344837;28;82339;-88
2022/01/25 00:47:27;;;;;;;;;;;0.50;99.90;1.20;101103.00;;;;341476;28;91176;-88
2022/01/25 00:47:41;;;;;;;;;;;0.40;99.90;1.20;101096.00;;;;342002;28;83464;-88
2022/01/25 00:47:53;;;;;;;;;;;0.40;99.90;1.40;101103.00;;;;341620;28;90189;-88
2022/01/25 00:48:06;;;;;;;;;;;0.40;99.90;1.20;101092.00;;;;340592;28;83390;-87
2022/01/25 00:48:29;;;;;;;;;;;0.40;99.90;1.30;101100.00;;;;341479;28;92175;-88
2022/01/25 00:48:44;;;;;;;;;;;0.40;99.90;1.30;101101.00;;;;339547;28;83385;-88
2022/01/25 00:49:01;;;;;;;;;;;0.40;99.90;1.30;101094.00;;;;341429;28;92051;-87
2022/01/25 00:49:21;;;;;;;;;;;0.50;99.90;1.20;101092.00;;;;343428;28;82543;-88
2022/01/25 00:49:38;;;;;;;;;;;0.50;99.90;1.20;101102.00;;;;342303;28;89155;-88
2022/01/25 00:49:52;;;;;;;;;;;0.50;99.90;1.20;101101.00;;;;344727;28;83408;-88
2022/01/25 00:50:13;;;;;;;;;;;0.50;99.90;1.10;101089.00;;;;343001;28;90446;-88
2022/01/25 00:50:31;;;;;;;;;;;0.40;99.90;1.10;101091.00;;;;343366;28;82467;-87
2022/01/25 00:50:43;;;;;;;;;;;0.40;99.90;1.10;101095.00;;;;341502;28;91234;-87
2022/01/25 00:51:03;;;;;;;;;;;0.40;99.90;1.10;101099.00;;;;342007;28;83430;-88
2022/01/25 00:52:06;;;;;;;;;;;0.40;99.90;1.00;101099.00;;;;340340;28;83347;-88
2022/01/25 00:52:19;;;;;;;;;;;0.40;99.90;1.00;101100.00;;;;344327;28;89963;-87
2022/01/25 00:54:39;;;;;;;;;;;0.40;99.90;1.10;101095.00;;;;341141;28;92293;-88
2022/01/25 00:54:53;;;;;;;;;;;0.40;99.90;1.10;101103.00;;;;343317;28;83277;-88
2022/01/25 00:55:05;;;;;;;;;;;0.40;99.90;1.10;101090.00;;;;342880;28;92393;-88
2022/01/25 00:55:17;;;;;;;;;;;0.40;99.90;1.00;101092.00;;;;343304;28;83387;-88
2022/01/25 00:55:30;;;;;;;;;;;0.40;99.90;1.00;101096.00;;;;344141;28;91185;-88
2022/01/25 00:55:42;;;;;;;;;;;0.40;99.90;1.00;101093.00;;;;342071;28;83317;-88
2022/01/25 00:55:53;;;;;;;;;;;0.40;99.90;1.00;101101.00;;;;341688;28;88236;-88
2022/01/25 00:56:05;;;;;;;;;;;0.40;99.90;1.00;101088.00;;;;341946;28;83345;-88
2022/01/25 00:56:17;;;;;;;;;;;0.40;99.90;0.90;101092.00;;;;344315;28;88752;-88
2022/01/25 00:56:31;;;;;;;;;;;0.40;99.90;0.90;101092.00;;;;344725;28;82279;-88
2022/01/25 00:56:45;;;;;;;;;;;0.40;99.90;0.90;101093.00;;;;342812;28;92193;-88
2022/01/25 00:56:57;;;;;;;;;;;0.40;99.90;1.00;101100.00;;;;344383;28;83534;-87
2022/01/25 00:57:09;;;;;;;;;;;0.40;99.90;1.00;101099.00;;;;342837;28;92449;-87
2022/01/25 00:57:21;;;;;;;;;;;0.40;99.90;1.00;101099.00;;;;340721;28;83294;-88
2022/01/25 00:57:33;;;;;;;;;;;0.30;99.90;1.00;101094.00;;;;342253;28;92022;-87
2022/01/25 00:57:44;;;;;;;;;;;0.30;99.90;1.00;101096.00;;;;343249;28;82420;-88
2022/01/25 00:57:56;;;;;;;;;;;0.30;99.90;1.00;101093.00;;;;341580;28;87799;-88
2022/01/25 00:58:08;;;;;;;;;;;0.30;99.90;1.00;101090.00;;;;341924;28;82465;-88
2022/01/25 00:58:20;;;;;;;;;;;0.30;99.90;0.90;101089.00;;;;341383;28;89994;-87
2022/01/25 00:58:31;;;;;;;;;;;0.30;99.90;0.90;101101.00;;;;341796;28;82435;-88
2022/01/25 00:58:43;;;;;;;;;;;0.30;99.90;0.90;101101.00;;;;342903;28;89903;-88
2022/01/25 00:58:55;;;;;;;;;;;0.30;99.90;1.00;101093.00;;;;343398;28;83324;-88
2022/01/25 00:59:10;;;;;;;;;;;0.30;99.90;1.10;101091.00;;;;341488;28;91230;-88
2022/01/25 00:59:27;;;;;;;;;;;0.30;99.90;1.00;101100.00;;;;341944;28;83393;-88
2022/01/25 00:59:38;;;;;;;;;;;0.30;99.90;1.10;101088.00;;;;342919;28;90287;-88
2022/01/25 00:59:50;;;;;;;;;;;0.30;99.90;1.10;101082.00;;;;343237;28;83389;-88
2022/01/25 01:00:04;;;;;;;;;;;0.30;99.90;1.10;101094.00;;;;342779;28;91833;-87
2022/01/25 01:00:16;;;;;;;;;;;0.30;99.90;1.10;101095.00;;;;341928;28;83410;-87
2022/01/25 01:00:28;;;;;;;;;;;0.30;99.90;1.10;101093.00;;;;342703;28;90644;-87
2022/01/25 01:00:40;;;;;;;;;;;0.30;99.90;1.10;101087.00;;;;341635;28;83432;-88
2022/01/25 01:00:52;;;;;;;;;;;0.30;99.90;1.00;101102.00;;;;342878;28;88199;-87
2022/01/25 01:01:03;;;;;;;;;;;0.30;99.90;0.90;101094.00;;;;343273;28;83553;-88
2022/01/25 01:01:17;;;;;;;;;;;0.30;99.90;0.90;101095.00;;;;342876;28;92604;-88
2022/01/25 01:01:29;;;;;;;;;;;0.30;99.90;0.90;101101.00;;;;343131;28;83505;-88
2022/01/25 01:01:42;;;;;;;;;;;0.30;99.90;0.90;101099.00;;;;342917;28;91785;-87
2022/01/25 01:02:03;;;;;;;;;;;0.30;99.90;0.90;101103.00;;;;343365;28;83367;-87
2022/01/25 01:02:16;;;;;;;;;;;0.30;99.90;0.90;101091.00;;;;343039;28;90481;-88
2022/01/25 01:02:32;;;;;;;;;;;0.30;99.90;0.90;101102.00;;;;341909;28;83511;-88
2022/01/25 01:02:44;;;;;;;;;;;0.30;99.90;0.90;101104.00;;;;342841;28;91303;-87
2022/01/25 01:02:56;;;;;;;;;;;0.30;99.90;0.90;101100.00;;;;343420;28;82445;-88
2022/01/25 01:03:09;;;;;;;;;;;0.30;99.90;0.80;101096.00;;;;341467;28;88290;-87
2022/01/25 01:03:21;;;;;;;;;;;0.30;99.90;0.80;101105.00;;;;341921;28;82646;-88
2022/01/25 01:03:32;;;;;;;;;;;0.30;99.90;0.90;101101.00;;;;340871;28;91609;-87
2022/01/25 01:03:44;;;;;;;;;;;0.30;99.90;0.90;101101.00;;;;343199;28;83497;-87
2022/01/25 01:03:56;;;;;;;;;;;0.30;99.90;0.90;101092.00;;;;340103;28;91497;-88
2022/01/25 01:04:08;;;;;;;;;;;0.20;99.90;0.90;101104.00;;;;343288;28;83468;-88
2022/01/25 01:04:20;;;;;;;;;;;0.20;99.90;0.90;101107.00;;;;344338;28;90805;-87
2022/01/25 01:04:32;;;;;;;;;;;0.30;99.90;0.90;101102.00;;;;343829;28;85411;-87
2022/01/25 01:04:44;;;;;;;;;;;0.20;99.90;0.90;101101.00;;;;344170;28;88982;-87
2022/01/25 01:04:56;;;;;;;;;;;0.30;99.90;0.90;101096.00;;;;341920;28;82583;-88
2022/01/25 01:05:08;;;;;;;;;;;0.20;99.90;0.90;101096.00;;;;341627;28;90702;-87
2022/01/25 01:05:20;;;;;;;;;;;0.20;99.90;0.90;101102.00;;;;343402;28;82368;-87
2022/01/25 01:05:52;;;;;;;;;;;0.20;99.90;0.90;101104.00;;;;342683;28;90995;-87
2022/01/25 01:06:06;;;;;;;;;;;0.20;99.90;0.90;101105.00;;;;344680;28;83325;-88
2022/01/25 01:06:18;;;;;;;;;;;0.20;99.90;0.90;101102.00;;;;345440;28;90766;-88
2022/01/25 01:06:30;;;;;;;;;;;0.20;99.90;0.90;101108.00;;;;341295;28;83503;-87
2022/01/25 01:06:43;;;;;;;;;;;0.20;99.90;0.90;101104.00;;;;344303;28;90617;-88
2022/01/25 01:06:56;;;;;;;;;;;0.20;99.90;0.90;101107.00;;;;342920;28;83412;-88
2022/01/25 01:07:11;;;;;;;;;;;0.30;99.90;0.90;101104.00;;;;342949;28;91496;-87
2022/01/25 01:07:24;;;;;;;;;;;0.20;99.90;0.80;101106.00;;;;341958;28;83402;-88
2022/01/25 01:07:36;;;;;;;;;;;0.20;99.90;0.80;101101.00;;;;341326;28;91308;-87
2022/01/25 01:07:48;;;;;;;;;;;0.20;99.90;0.80;101103.00;;;;343336;28;83279;-88
2022/01/25 01:08:00;;;;;;;;;;;0.20;99.90;0.80;101109.00;;;;341487;28;92720;-88
2022/01/25 01:08:11;;;;;;;;;;;0.20;99.90;0.80;101100.00;;;;341990;28;82537;-87
2022/01/25 01:08:23;;;;;;;;;;;0.20;99.90;0.80;101105.00;;;;342946;28;91291;-87
2022/01/25 01:08:35;;;;;;;;;;;0.20;99.90;0.80;101103.00;;;;343305;28;83553;-87
2022/01/25 01:08:47;;;;;;;;;;;0.20;99.90;0.80;101095.00;;;;344104;28;91484;-88
2022/01/25 01:08:59;;;;;;;;;;;0.20;99.90;0.80;101104.00;;;;342019;28;83435;-88
2022/01/25 01:09:11;;;;;;;;;;;0.20;99.90;0.80;101104.00;;;;342583;28;90439;-88
2022/01/25 01:09:23;;;;;;;;;;;0.20;99.90;0.80;101105.00;;;;341947;28;82491;-88
2022/01/25 01:09:38;;;;;;;;;;;0.20;99.90;0.80;101104.00;;;;342461;28;91354;-87
2022/01/25 01:09:51;;;;;;;;;;;0.20;99.90;0.80;101104.00;;;;342028;28;83300;-88
2022/01/25 01:10:04;;;;;;;;;;;0.20;99.90;0.80;101108.00;;;;342531;28;91368;-88
2022/01/25 01:10:20;;;;;;;;;;;0.20;99.90;0.70;101095.00;;;;344623;28;83304;-88
2022/01/25 01:10:31;;;;;;;;;;;0.20;99.90;0.70;101101.00;;;;344101;28;91415;-88
2022/01/25 01:10:43;;;;;;;;;;;0.20;99.90;0.80;101106.00;;;;343255;28;83362;-88
2022/01/25 01:10:57;;;;;;;;;;;0.20;99.90;0.80;101101.00;;;;342899;28;90418;-88
2022/01/25 01:11:13;;;;;;;;;;;0.20;99.90;0.80;101104.00;;;;341839;28;83263;-87
2022/01/25 01:11:32;;;;;;;;;;;0.20;99.90;0.80;101101.00;;;;341543;28;88826;-88
2022/01/25 01:12:45;;;;;;;;;;;0.20;99.90;0.80;101100.00;;;;341973;28;83337;-88
2022/01/25 01:15:27;;;;;;;;;;;0.10;99.90;0.60;101104.00;;;;341532;28;90248;-88
2022/01/25 01:15:50;;;;;;;;;;;0.10;99.90;0.60;101108.00;;;;341967;28;82588;-87
2022/01/25 01:16:33;;;;;;;;;;;0.10;99.90;0.70;101109.00;;;;344782;28;91686;-88
2022/01/25 01:29:17;;;;;;;;;;;0.00;99.90;0.60;101121.00;;;;338989;28;83339;-88
2022/01/25 01:29:58;;;;;;;;;;;0.00;99.90;0.80;101114.00;;;;339207;28;83422;-88
2022/01/25 01:31:11;;;;;;;;;;;0.10;99.90;0.90;101124.00;;;;338779;28;91483;-88
2022/01/25 01:31:54;;;;;;;;;;;0.10;99.90;0.80;101121.00;;;;340517;28;82517;-88
2022/01/25 01:32:23;;;;;;;;;;;0.10;99.90;0.80;101118.00;;;;340036;28;88532;-88
2022/01/25 01:33:54;;;;;;;;;;;0.10;99.90;0.70;101117.00;;;;339397;28;83539;-88
2022/01/25 01:35:21;;;;;;;;;;;0.00;99.90;0.60;101119.00;;;;339856;28;91524;-88
2022/01/25 01:36:51;;;;;;;;;;;0.00;99.90;0.60;101117.00;;;;338695;28;92653;-88
2022/01/25 01:38:12;;;;;;;;;;;0.00;99.90;0.60;101119.00;;;;339328;28;82373;-88
2022/01/25 01:40:04;;;;;;;;;;;-0.10;99.90;0.40;101128.00;;;;340113;28;83443;-88
2022/01/25 01:40:47;;;;;;;;;;;-0.10;99.90;0.40;101125.00;;;;338850;28;89185;-88
2022/01/25 01:42:47;;;;;;;;;;;-0.20;99.90;0.30;101136.00;;;;340187;28;88141;-88
2022/01/25 01:43:14;;;;;;;;;;;-0.20;99.90;0.60;101124.00;;;;340955;28;91700;-88
2022/01/25 01:43:33;;;;;;;;;;;-0.10;99.90;0.50;101135.00;;;;340214;28;82607;-88
2022/01/25 01:43:45;;;;;;;;;;;-0.10;99.90;0.40;101136.00;;;;338795;28;91317;-88
2022/01/25 01:44:00;;;;;;;;;;;-0.10;99.90;0.40;101133.00;;;;340343;28;82644;-88
2022/01/25 01:44:22;;;;;;;;;;;-0.10;99.90;0.40;101140.00;;;;340089;28;89378;-88
2022/01/25 01:45:12;;;;;;;;;;;-0.10;99.90;0.40;101130.00;;;;338714;28;91638;-88
2022/01/25 01:46:43;;;;;;;;;;;-0.20;99.90;0.40;101133.00;;;;342559;28;91637;-87
2022/01/25 01:47:04;;;;;;;;;;;-0.20;99.90;0.50;101134.00;;;;340655;28;82671;-88
2022/01/25 01:47:24;;;;;;;;;;;-0.20;99.90;0.50;101138.00;;;;340154;28;90055;-88
2022/01/25 01:47:48;;;;;;;;;;;-0.20;99.90;0.60;101134.00;;;;339146;28;82284;-88
2022/01/25 01:48:04;;;;;;;;;;;-0.20;99.90;0.60;101138.00;;;;337479;28;92593;-88
2022/01/25 01:48:28;;;;;;;;;;;-0.20;99.90;0.50;101136.00;;;;341839;28;83529;-88
2022/01/25 01:48:50;;;;;;;;;;;-0.20;99.90;0.50;101131.00;;;;339754;28;91237;-88
2022/01/25 01:49:05;;;;;;;;;;;-0.20;99.90;0.50;101145.00;;;;341514;28;83502;-88
2022/01/25 01:49:17;;;;;;;;;;;-0.20;99.90;0.50;101137.00;;;;342918;28;87976;-88
2022/01/25 01:49:30;;;;;;;;;;;-0.20;99.90;0.50;101138.00;;;;341730;28;82348;-88
2022/01/25 01:49:44;;;;;;;;;;;-0.20;99.90;0.50;101130.00;;;;341516;28;91232;-88
2022/01/25 01:49:56;;;;;;;;;;;-0.20;99.90;0.50;101146.00;;;;341821;28;82504;-88
2022/01/25 01:50:12;;;;;;;;;;;-0.20;99.90;0.50;101143.00;;;;342231;28;90871;-88
2022/01/25 01:50:28;;;;;;;;;;;-0.20;99.90;0.50;101136.00;;;;344692;28;82592;-88
2022/01/25 01:50:40;;;;;;;;;;;-0.20;99.90;0.40;101139.00;;;;344239;28;88580;-88
2022/01/25 01:50:52;;;;;;;;;;;-0.20;99.90;0.50;101140.00;;;;344617;28;83448;-88
2022/01/25 01:51:13;;;;;;;;;;;-0.20;99.90;0.50;101143.00;;;;342961;28;89083;-88
2022/01/25 01:51:29;;;;;;;;;;;-0.20;99.90;0.50;101144.00;;;;344620;28;83275;-88
2022/01/25 01:51:44;;;;;;;;;;;-0.20;99.90;0.50;101128.00;;;;344230;28;91008;-88
2022/01/25 01:51:55;;;;;;;;;;;-0.20;99.90;0.40;101141.00;;;;344567;28;83475;-88
2022/01/25 01:52:08;;;;;;;;;;;-0.20;99.90;0.40;101137.00;;;;344164;28;89012;-88
2022/01/25 01:52:20;;;;;;;;;;;-0.20;99.90;0.40;101141.00;;;;343244;28;83490;-88
2022/01/25 01:52:31;;;;;;;;;;;-0.20;99.90;0.40;101136.00;;;;342821;28;90456;-88
2022/01/25 01:52:43;;;;;;;;;;;-0.20;99.90;0.40;101146.00;;;;344444;28;82424;-88
2022/01/25 01:52:55;;;;;;;;;;;-0.20;99.90;0.40;101133.00;;;;342675;28;92806;-88
2022/01/25 01:53:07;;;;;;;;;;;-0.20;99.90;0.40;101134.00;;;;341965;28;83410;-88
2022/01/25 01:53:19;;;;;;;;;;;-0.20;99.90;0.50;101138.00;;;;342829;28;91671;-88
2022/01/25 01:53:31;;;;;;;;;;;-0.20;99.90;0.50;101143.00;;;;344487;28;83433;-87
2022/01/25 01:53:43;;;;;;;;;;;-0.20;99.90;0.50;101145.00;;;;341435;28;91869;-88
2022/01/25 01:54:01;;;;;;;;;;;-0.20;99.90;0.40;101140.00;;;;344650;28;83440;-88
2022/01/25 01:54:13;;;;;;;;;;;-0.20;99.90;0.40;101137.00;;;;344113;28;90452;-88
2022/01/25 01:54:25;;;;;;;;;;;-0.20;99.90;0.40;101138.00;;;;344408;28;82443;-88
2022/01/25 01:54:43;;;;;;;;;;;-0.20;99.90;0.60;101140.00;;;;343652;28;90099;-88
2022/01/25 01:54:54;;;;;;;;;;;-0.20;99.90;0.50;101144.00;;;;343286;28;83487;-88
2022/01/25 01:55:07;;;;;;;;;;;-0.20;99.90;0.50;101138.00;;;;342753;28;91355;-88
2022/01/25 01:55:18;;;;;;;;;;;-0.20;99.90;0.50;101138.00;;;;341907;28;83369;-88
2022/01/25 01:55:31;;;;;;;;;;;-0.20;99.90;0.60;101137.00;;;;341713;28;88043;-88
2022/01/25 01:55:43;;;;;;;;;;;-0.20;99.90;0.60;101136.00;;;;343230;28;83243;-88
2022/01/25 01:55:55;;;;;;;;;;;-0.20;99.90;0.50;101139.00;;;;341576;28;90824;-88
2022/01/25 01:56:07;;;;;;;;;;;-0.20;99.90;0.50;101150.00;;;;343291;28;83397;-88
2022/01/25 01:56:19;;;;;;;;;;;-0.30;99.90;0.50;101135.00;;;;342809;28;91234;-88
2022/01/25 01:56:31;;;;;;;;;;;-0.20;99.90;0.50;101145.00;;;;344612;28;83424;-88
2022/01/25 01:56:43;;;;;;;;;;;-0.20;99.90;0.50;101145.00;;;;342725;28;92170;-88
2022/01/25 01:56:55;;;;;;;;;;;-0.20;99.90;0.60;101142.00;;;;344625;28;82513;-88
2022/01/25 01:57:07;;;;;;;;;;;-0.20;99.90;0.50;101141.00;;;;345486;28;91230;-88
2022/01/25 01:57:19;;;;;;;;;;;-0.20;99.90;0.60;101135.00;;;;345972;28;83406;-88
2022/01/25 01:57:30;;;;;;;;;;;-0.20;99.90;0.50;101139.00;;;;345068;28;91541;-88
2022/01/25 01:57:42;;;;;;;;;;;-0.20;99.90;0.50;101148.00;;;;343702;28;83292;-88
2022/01/25 01:57:55;;;;;;;;;;;-0.20;99.90;0.60;101141.00;;;;344180;28;91292;-88
2022/01/25 01:58:06;;;;;;;;;;;-0.20;99.90;0.60;101140.00;;;;343184;28;83258;-87
2022/01/25 01:58:18;;;;;;;;;;;-0.20;99.90;0.70;101143.00;;;;342670;28;90137;-88
2022/01/25 01:58:30;;;;;;;;;;;-0.20;99.90;0.80;101129.00;;;;343399;28;82432;-88
2022/01/25 01:58:42;;;;;;;;;;;-0.10;99.90;0.70;101136.00;;;;344045;28;91260;-88
2022/01/25 01:58:55;;;;;;;;;;;-0.10;99.90;0.60;101144.00;;;;344689;28;83410;-88
2022/01/25 01:59:08;;;;;;;;;;;-0.10;99.90;0.60;101137.00;;;;345482;28;92328;-88
2022/01/25 01:59:20;;;;;;;;;;;-0.20;99.90;0.70;101137.00;;;;345994;28;83444;-88
2022/01/25 01:59:32;;;;;;;;;;;-0.10;99.90;0.60;101143.00;;;;344117;28;91331;-88
2022/01/25 01:59:44;;;;;;;;;;;-0.10;99.90;0.50;101136.00;;;;344687;28;83565;-88
2022/01/25 01:59:56;;;;;;;;;;;-0.10;99.90;0.50;101138.00;;;;342848;28;91654;-88
2022/01/25 02:00:08;;;;;;;;;;;-0.10;99.90;0.50;101145.00;;;;343199;28;83404;-88
2022/01/25 02:00:23;;;;;;;;;;;-0.10;99.90;0.60;101136.00;;;;345471;28;91695;-88
2022/01/25 02:00:39;;;;;;;;;;;-0.10;99.90;0.50;101141.00;;;;344383;28;82485;-88
2022/01/25 02:00:51;;;;;;;;;;;-0.20;99.90;0.50;101135.00;;;;342726;28;91261;-88
2022/01/25 02:01:08;;;;;;;;;;;-0.10;99.90;0.60;101144.00;;;;344218;28;83516;-88
2022/01/25 02:01:20;;;;;;;;;;;-0.10;99.90;0.50;101144.00;;;;344193;28;92404;-88
2022/01/25 02:01:32;;;;;;;;;;;-0.10;99.90;0.60;101137.00;;;;343108;28;83575;-88
2022/01/25 02:01:46;;;;;;;;;;;-0.20;99.90;0.60;101141.00;;;;342909;28;90754;-88
2022/01/25 02:01:58;;;;;;;;;;;-0.10;99.90;0.70;101140.00;;;;341906;28;83439;-88
2022/01/25 02:02:10;;;;;;;;;;;-0.20;99.90;0.60;101146.00;;;;342747;28;91698;-88
2022/01/25 02:02:23;;;;;;;;;;;-0.20;99.90;0.60;101144.00;;;;344629;28;83535;-88
2022/01/25 02:02:35;;;;;;;;;;;-0.20;99.90;0.60;101136.00;;;;342894;28;91541;-88
2022/01/25 02:02:47;;;;;;;;;;;-0.10;99.90;0.70;101146.00;;;;343156;28;83531;-88
2022/01/25 02:03:00;;;;;;;;;;;-0.10;99.90;0.70;101138.00;;;;342782;28;91927;-88
2022/01/25 02:03:13;;;;;;;;;;;-0.10;99.90;0.80;101145.00;;;;341900;28;83435;-88
2022/01/25 02:03:25;;;;;;;;;;;-0.10;99.90;0.80;101141.00;;;;342611;28;92467;-88
2022/01/25 02:03:37;;;;;;;;;;;-0.10;99.90;0.90;101140.00;;;;343210;28;82501;-88
2022/01/25 02:03:49;;;;;;;;;;;-0.10;99.90;0.90;101139.00;;;;342900;28;90065;-88
2022/01/25 02:04:01;;;;;;;;;;;0.00;99.90;0.90;101144.00;;;;345235;28;82677;-87
2022/01/25 02:04:14;;;;;;;;;;;0.00;99.90;1.00;101143.00;;;;344169;28;90434;-88
2022/01/25 02:04:26;;;;;;;;;;;0.00;99.90;0.90;101144.00;;;;341891;28;83470;-88
2022/01/25 02:04:38;;;;;;;;;;;0.00;99.90;0.90;101137.00;;;;341374;28;91597;-88
2022/01/25 02:04:50;;;;;;;;;;;0.00;99.90;0.90;101141.00;;;;343204;28;84425;-88
2022/01/25 02:05:02;;;;;;;;;;;0.00;99.90;0.90;101146.00;;;;341534;28;90994;-88
2022/01/25 02:05:14;;;;;;;;;;;0.00;99.90;0.90;101135.00;;;;343252;28;83427;-88
2022/01/25 02:05:26;;;;;;;;;;;0.00;99.90;0.90;101142.00;;;;342727;28;91450;-88
2022/01/25 02:05:38;;;;;;;;;;;0.00;99.90;0.90;101143.00;;;;344614;28;83368;-88
2022/01/25 02:05:49;;;;;;;;;;;0.10;99.90;0.90;101133.00;;;;344196;28;88020;-88
2022/01/25 02:06:01;;;;;;;;;;;0.00;99.90;0.80;101141.00;;;;343334;28;83547;-88
2022/01/25 02:06:13;;;;;;;;;;;0.10;99.90;0.80;101135.00;;;;342773;28;91705;-88
2022/01/25 02:06:25;;;;;;;;;;;0.10;99.90;0.80;101141.00;;;;343087;28;83240;-88
2022/01/25 02:06:37;;;;;;;;;;;0.00;99.90;0.90;101142.00;;;;344023;28;92011;-88
2022/01/25 02:06:49;;;;;;;;;;;0.00;99.90;0.90;101148.00;;;;343223;28;82397;-88
2022/01/25 02:07:01;;;;;;;;;;;0.00;99.90;0.90;101141.00;;;;342138;28;90634;-88